createdAt,value
2019-01-05T00:00:17.158Z,10.57
2019-01-05T00:03:14.108Z,10.77
2019-01-05T00:06:00.632Z,10.63
2019-01-05T00:08:47.351Z,9.50
2019-01-05T00:11:39.354Z,9.37
2019-01-05T00:14:36.352Z,9.50
2019-01-05T00:17:23.066Z,9.73
2019-01-05T00:20:21.588Z,9.70
2019-01-05T00:23:21.890Z,9.23
2019-01-05T00:26:28.017Z,9.10
2019-01-05T00:29:16.663Z,10.37
2019-01-05T00:32:21.672Z,9.80
2019-01-05T00:35:08.160Z,8.30
2019-01-05T00:38:08.355Z,8.87
2019-01-05T00:41:02.295Z,8.70
2019-01-05T00:44:02.253Z,8.50
2019-01-05T00:46:49.401Z,8.70
2019-01-05T00:49:36.630Z,8.53
2019-01-05T00:52:21.966Z,7.83
2019-01-05T00:55:08.112Z,7.40
2019-01-05T00:57:59.054Z,7.50
2019-01-05T01:00:45.980Z,7.87
2019-01-05T01:03:52.162Z,7.67
2019-01-05T01:06:28.871Z,7.67
2019-01-05T01:09:15.388Z,7.10
2019-01-05T01:11:56.123Z,7.63
2019-01-05T01:14:42.314Z,7.87
2019-01-05T01:17:25.642Z,8.23
2019-01-05T01:20:11.775Z,7.00
2019-01-05T01:23:06.178Z,7.53
2019-01-05T01:25:56.502Z,6.67
2019-01-05T01:28:43.124Z,7.57
2019-01-05T01:31:37.529Z,7.17
2019-01-05T01:34:34.351Z,7.10
2019-01-05T01:37:20.526Z,6.97
2019-01-05T01:40:09.242Z,7.90
2019-01-05T01:42:47.747Z,7.57
2019-01-05T01:45:34.565Z,7.20
2019-01-05T01:48:34.087Z,7.03
2019-01-05T01:51:30.708Z,6.60
2019-01-05T01:54:14.411Z,6.30
2019-01-05T01:57:05.440Z,6.20
2019-01-05T02:00:14.263Z,6.07
2019-01-05T02:03:05.858Z,6.37
2019-01-05T02:05:50.006Z,6.70
2019-01-05T02:08:37.280Z,6.53
2019-01-05T02:11:24.722Z,5.93
2019-01-05T02:14:13.834Z,6.57
2019-01-05T02:17:04.088Z,6.43
2019-01-05T02:20:17.680Z,6.07
2019-01-05T02:23:32.606Z,6.40
2019-01-05T02:26:44.328Z,5.67
2019-01-05T02:30:01.330Z,5.97
2019-01-05T02:33:20.654Z,6.47
2019-01-05T02:36:27.537Z,5.80
2019-01-05T02:39:39.563Z,6.30
2019-01-05T02:42:59.527Z,5.57
2019-01-05T02:46:04.386Z,5.60
2019-01-05T02:49:12.711Z,5.47
2019-01-05T02:52:33.811Z,5.63
2019-01-05T02:55:26.182Z,6.07
2019-01-05T02:58:29.997Z,5.60
2019-01-05T03:01:33.547Z,6.13
2019-01-05T03:04:44.585Z,5.67
2019-01-05T03:07:39.651Z,5.57
2019-01-05T03:10:54.751Z,5.83
2019-01-05T03:14:09.869Z,5.07
2019-01-05T03:17:19.081Z,5.17
2019-01-05T03:20:23.613Z,5.80
2019-01-05T03:23:23.755Z,5.80
2019-01-05T03:26:39.562Z,5.30
2019-01-05T03:29:56.206Z,5.60
2019-01-05T03:33:23.218Z,5.57
2019-01-05T03:36:50.475Z,5.83
2019-01-05T03:39:53.951Z,6.10
2019-01-05T03:43:15.161Z,5.40
2019-01-05T03:46:11.089Z,5.87
2019-01-05T03:49:41.523Z,5.87
2019-01-05T03:52:56.351Z,6.07
2019-01-05T03:55:55.179Z,6.33
2019-01-05T03:59:09.183Z,6.30
2019-01-05T04:02:19.974Z,6.23
2019-01-05T04:05:24.089Z,6.93
2019-01-05T04:08:24.771Z,6.63
2019-01-05T04:11:43.883Z,6.10
2019-01-05T04:15:05.367Z,6.17
2019-01-05T04:18:19.315Z,7.43
2019-01-05T04:21:30.904Z,6.87
2019-01-05T04:24:27.545Z,7.73
2019-01-05T04:27:40.040Z,7.60
2019-01-05T04:30:50.339Z,7.63
2019-01-05T04:33:54.581Z,8.27
2019-01-05T04:37:03.955Z,7.67
2019-01-05T04:40:07.975Z,7.33
2019-01-05T04:43:16.133Z,7.10
2019-01-05T04:46:13.876Z,8.17
2019-01-05T04:49:23.396Z,6.80
2019-01-05T04:52:40.988Z,6.97
2019-01-05T04:55:52.489Z,7.77
2019-01-05T04:59:15.156Z,7.43
2019-01-05T05:02:28.239Z,7.60
2019-01-05T05:05:52.509Z,8.37
2019-01-05T05:08:51.653Z,7.43
2019-01-05T05:12:02.214Z,8.40
2019-01-05T05:15:17.106Z,7.47
2019-01-05T05:18:25.466Z,7.70
2019-01-05T05:21:40.560Z,7.47
2019-01-05T05:24:40.849Z,7.27
2019-01-05T05:27:51.794Z,7.23
2019-01-05T05:31:10.362Z,7.90
2019-01-05T05:34:08.395Z,7.93
2019-01-05T05:37:12.517Z,8.03
2019-01-05T05:40:26.388Z,8.23
2019-01-05T05:43:50.650Z,9.17
2019-01-05T05:46:59.591Z,8.13
2019-01-05T05:50:14.430Z,8.33
2019-01-05T05:53:35.922Z,8.60
2019-01-05T05:56:34.283Z,8.73
2019-01-05T05:59:38.413Z,7.57
2019-01-05T06:03:02.776Z,8.40
2019-01-05T06:06:19.787Z,7.93
2019-01-05T06:09:27.448Z,8.43
2019-01-05T06:12:39.040Z,8.90
2019-01-05T06:15:59.975Z,8.40
2019-01-05T06:19:36.639Z,7.63
2019-01-05T06:22:45.999Z,8.17
2019-01-05T06:26:08.823Z,9.47
2019-01-05T06:29:19.783Z,8.37
2019-01-05T06:32:24.364Z,8.77
2019-01-05T06:35:51.623Z,8.73
2019-01-05T06:38:56.738Z,9.53
2019-01-05T06:42:03.319Z,9.40
2019-01-05T06:44:58.907Z,9.43
2019-01-05T06:47:58.008Z,9.20
2019-01-05T06:51:17.850Z,9.13
2019-01-05T06:54:21.588Z,9.43
2019-01-05T06:57:28.264Z,9.27
2019-01-05T07:00:47.804Z,8.90
2019-01-05T07:03:58.475Z,8.80
2019-01-05T07:07:02.555Z,9.17
2019-01-05T07:10:16.621Z,8.73
2019-01-05T07:13:37.103Z,9.73
2019-01-05T07:16:38.333Z,9.97
2019-01-05T07:19:58.585Z,8.97
2019-01-05T07:23:20.601Z,9.20
2019-01-05T07:26:31.991Z,10.23
2019-01-05T07:29:40.361Z,10.23
2019-01-05T07:32:51.836Z,10.00
2019-01-05T07:35:48.496Z,9.43
2019-01-05T07:38:55.344Z,9.13
2019-01-05T07:42:31.834Z,9.77
2019-01-05T07:45:43.934Z,10.30
2019-01-05T07:49:00.636Z,10.27
2019-01-05T07:52:06.230Z,9.20
2019-01-05T07:55:11.727Z,9.37
2019-01-05T07:58:15.658Z,9.60
2019-01-05T08:01:23.323Z,9.73
2019-01-05T08:04:41.504Z,10.57
2019-01-05T08:07:54.394Z,10.07
2019-01-05T08:10:58.402Z,10.57
2019-01-05T08:14:02.042Z,10.63
2019-01-05T08:17:05.865Z,10.60
2019-01-05T08:20:21.086Z,10.67
2019-01-05T08:23:36.530Z,10.60
2019-01-05T08:26:44.484Z,11.93
2019-01-05T08:30:03.289Z,10.70
2019-01-05T08:33:21.749Z,11.20
2019-01-05T08:36:42.006Z,10.23
2019-01-05T08:39:56.975Z,10.20
2019-01-05T08:43:30.063Z,11.90
2019-01-05T08:46:41.155Z,11.10
2019-01-05T08:49:44.795Z,11.20
2019-01-05T08:52:56.395Z,12.23
2019-01-05T08:56:19.593Z,11.53
2019-01-05T08:59:19.382Z,12.63
2019-01-05T09:02:35.638Z,12.33
2019-01-05T09:05:39.611Z,12.47
2019-01-05T09:08:43.443Z,12.27
2019-01-05T09:11:55.775Z,13.30
2019-01-05T09:15:13.720Z,12.13
2019-01-05T09:18:42.116Z,12.77
2019-01-05T09:21:47.126Z,11.93
2019-01-05T09:24:54.499Z,12.73
2019-01-05T09:27:58.324Z,12.80
2019-01-05T09:31:06.644Z,13.20
2019-01-05T09:34:20.085Z,12.87
2019-01-05T09:37:43.965Z,12.60
2019-01-05T09:40:59.493Z,13.07
2019-01-05T09:44:23.269Z,13.17
2019-01-05T09:47:34.649Z,12.10
2019-01-05T09:50:39.841Z,13.03
2019-01-05T09:53:53.699Z,13.60
2019-01-05T09:56:56.651Z,12.83
2019-01-05T09:59:57.435Z,13.53
2019-01-05T10:03:08.336Z,14.67
2019-01-05T10:06:16.498Z,13.37
2019-01-05T10:09:20.228Z,13.27
2019-01-05T10:12:29.655Z,13.90
2019-01-05T10:15:54.676Z,12.67
2019-01-05T10:19:18.016Z,13.40
2019-01-05T10:22:36.299Z,13.03
2019-01-05T10:25:40.527Z,13.27
2019-01-05T10:28:44.255Z,13.70
2019-01-05T10:31:57.123Z,14.17
2019-01-05T10:35:15.403Z,13.53
2019-01-05T10:38:20.702Z,14.23
2019-01-05T10:41:38.884Z,13.33
2019-01-05T10:44:54.222Z,12.93
2019-01-05T10:48:10.515Z,13.27
2019-01-05T10:51:28.819Z,13.07
2019-01-05T10:54:48.967Z,14.03
2019-01-05T10:57:52.693Z,12.83
2019-01-05T11:01:08.323Z,13.53
2019-01-05T11:04:16.275Z,13.33
2019-01-05T11:07:46.751Z,13.20
2019-01-05T11:10:59.325Z,14.07
2019-01-05T11:14:29.697Z,12.23
2019-01-05T11:17:51.218Z,13.63
2019-01-05T11:21:20.305Z,13.50
2019-01-05T11:24:32.666Z,13.33
2019-01-05T11:27:56.891Z,13.27
2019-01-05T11:31:01.988Z,13.30
2019-01-05T11:33:47.747Z,13.20
2019-01-05T11:36:55.484Z,12.93
2019-01-05T11:39:59.710Z,13.07
2019-01-05T11:43:20.228Z,15.47
2019-01-05T11:46:31.944Z,13.43
2019-01-05T11:49:35.801Z,14.07
2019-01-05T11:53:00.256Z,13.80
2019-01-05T11:56:08.506Z,13.40
2019-01-05T11:59:15.182Z,13.03
2019-01-05T12:02:32.069Z,13.77
2019-01-05T12:05:25.906Z,13.07
2019-01-05T12:08:30.808Z,13.93
2019-01-05T12:11:51.994Z,13.57
2019-01-05T12:14:55.768Z,13.83
2019-01-05T12:18:17.281Z,13.17
2019-01-05T12:21:22.454Z,14.17
2019-01-05T12:24:26.425Z,14.07
2019-01-05T12:27:31.339Z,12.57
2019-01-05T12:30:50.011Z,14.00
2019-01-05T12:34:14.187Z,13.83
2019-01-05T12:37:23.027Z,12.27
2019-01-05T12:40:28.057Z,12.23
2019-01-05T12:43:32.468Z,13.23
2019-01-05T12:46:47.404Z,11.83
2019-01-05T12:49:56.916Z,12.63
2019-01-05T12:52:55.997Z,12.23
2019-01-05T12:55:55.365Z,12.07
2019-01-05T12:59:03.872Z,11.83
2019-01-05T13:02:12.243Z,11.73
2019-01-05T13:05:20.596Z,11.73
2019-01-05T13:08:25.415Z,10.47
2019-01-05T13:11:42.010Z,12.17
2019-01-05T13:14:52.722Z,11.50
2019-01-05T13:18:04.922Z,10.47
2019-01-05T13:21:22.203Z,10.93
2019-01-05T13:24:40.459Z,10.57
2019-01-05T13:27:45.208Z,10.73
2019-01-05T13:30:41.952Z,11.40
2019-01-05T13:33:48.418Z,11.43
2019-01-05T13:36:50.415Z,10.83
2019-01-05T13:39:50.886Z,12.10
2019-01-05T13:42:50.781Z,10.20
2019-01-05T13:45:51.727Z,9.50
2019-01-05T13:49:05.721Z,9.20
2019-01-05T13:52:25.683Z,9.00
2019-01-05T13:55:12.299Z,9.50
2019-01-05T13:57:58.925Z,10.03
2019-01-05T14:00:49.522Z,9.10
2019-01-05T14:03:38.206Z,9.37
2019-01-05T14:06:32.266Z,8.67
2019-01-05T14:09:29.409Z,7.83
2019-01-05T14:12:32.459Z,8.73
2019-01-05T14:15:17.580Z,8.93
2019-01-05T14:18:05.704Z,8.47
2019-01-05T14:20:52.236Z,8.77
2019-01-05T14:23:38.963Z,8.53
2019-01-05T14:26:25.294Z,9.20
2019-01-05T14:29:13.193Z,8.67
2019-01-05T14:32:00.447Z,9.50
2019-01-05T14:34:53.591Z,8.37
2019-01-05T14:37:39.657Z,7.70
2019-01-05T14:40:26.199Z,8.07
2019-01-05T14:43:28.836Z,7.47
2019-01-05T14:46:14.696Z,7.13
2019-01-05T14:49:14.383Z,7.60
2019-01-05T14:52:01.623Z,7.93
2019-01-05T14:54:47.630Z,7.40
2019-01-05T14:57:33.752Z,7.23
2019-01-05T15:00:27.863Z,7.33
2019-01-05T15:03:14.503Z,7.33
2019-01-05T15:06:00.645Z,7.53
2019-01-05T15:09:03.463Z,8.20
2019-01-05T15:11:49.493Z,7.93
2019-01-05T15:14:35.484Z,7.27
2019-01-05T15:17:22.876Z,6.57
2019-01-05T15:20:09.995Z,6.73
2019-01-05T15:22:58.539Z,6.60
2019-01-05T15:25:46.474Z,6.27
2019-01-05T15:28:32.773Z,6.83
2019-01-05T15:31:20.052Z,7.37
2019-01-05T15:34:06.658Z,7.10
2019-01-05T15:36:50.590Z,6.83
2019-01-05T15:39:44.025Z,6.77
2019-01-05T15:42:30.084Z,6.97
2019-01-05T15:45:35.855Z,7.40
2019-01-05T15:48:21.684Z,6.93
2019-01-05T15:51:24.464Z,7.40
2019-01-05T15:54:14.809Z,7.60
2019-01-05T15:57:08.540Z,8.30
2019-01-05T16:00:08.623Z,7.83
2019-01-05T16:03:03.975Z,7.97
2019-01-05T16:05:48.818Z,8.17
2019-01-05T16:08:35.807Z,7.80
2019-01-05T16:11:26.654Z,8.00
2019-01-05T16:14:13.067Z,8.13
2019-01-05T16:16:59.388Z,8.80
2019-01-05T16:19:50.234Z,8.20
2019-01-05T16:22:56.513Z,8.27
2019-01-05T16:25:44.624Z,7.63
2019-01-05T16:28:31.157Z,7.37
2019-01-05T16:31:22.098Z,7.70
2019-01-05T16:34:10.008Z,11.03
2019-01-05T16:36:56.539Z,8.30
2019-01-05T16:39:42.708Z,7.73
2019-01-05T16:42:25.619Z,8.53
2019-01-05T16:45:12.476Z,8.17
2019-01-05T16:48:15.526Z,8.07
2019-01-05T16:51:24.267Z,8.83
2019-01-05T16:54:24.376Z,7.90
2019-01-05T16:57:15.664Z,8.07
2019-01-05T17:00:06.665Z,8.30
2019-01-05T17:03:00.079Z,8.47
2019-01-05T17:05:47.768Z,8.10
2019-01-05T17:08:41.284Z,7.50
2019-01-05T17:11:28.103Z,7.53
2019-01-05T17:14:15.064Z,7.73
2019-01-05T17:17:05.683Z,8.23
2019-01-05T17:19:56.297Z,7.00
2019-01-05T17:22:52.352Z,8.07
2019-01-05T17:25:52.414Z,7.40
2019-01-05T17:28:40.271Z,8.17
2019-01-05T17:31:26.730Z,8.90
2019-01-05T17:34:33.423Z,8.50
2019-01-05T17:37:21.304Z,9.10
2019-01-05T17:40:06.027Z,7.63
2019-01-05T17:42:52.567Z,9.10
2019-01-05T17:45:40.247Z,9.33
2019-01-05T17:48:30.722Z,8.70
2019-01-05T17:51:17.412Z,9.07
2019-01-05T17:54:04.259Z,8.77
2019-01-05T17:56:51.947Z,8.87
2019-01-05T17:59:52.194Z,9.07
2019-01-05T18:02:38.482Z,9.53
2019-01-05T18:05:24.890Z,9.80
2019-01-05T18:08:10.857Z,9.83
2019-01-05T18:10:57.621Z,10.13
2019-01-05T18:13:48.496Z,10.43
2019-01-05T18:16:39.354Z,12.30
2019-01-05T18:19:26.322Z,12.07
2019-01-05T18:22:19.005Z,11.57
2019-01-05T18:25:07.506Z,11.87
2019-01-05T18:28:14.064Z,12.23
2019-01-05T18:31:20.060Z,11.00
2019-01-05T18:34:06.022Z,12.97
2019-01-05T18:37:06.986Z,12.03
2019-01-05T18:39:54.312Z,14.17
2019-01-05T18:42:48.034Z,12.40
2019-01-05T18:45:38.854Z,12.87
2019-01-05T18:48:25.708Z,13.13
2019-01-05T18:51:16.271Z,12.23
2019-01-05T18:54:16.712Z,15.53
2019-01-05T18:57:09.344Z,12.60
2019-01-05T18:59:57.440Z,12.07
2019-01-05T19:02:45.127Z,12.67
2019-01-05T19:05:35.645Z,11.20
2019-01-05T19:08:32.681Z,13.07
2019-01-05T19:11:19.676Z,11.87
2019-01-05T19:14:20.140Z,10.67
2019-01-05T19:17:14.204Z,10.60
2019-01-05T19:20:05.142Z,10.27
2019-01-05T19:22:51.937Z,10.37
2019-01-05T19:25:45.631Z,11.53
2019-01-05T19:28:33.808Z,10.13
2019-01-05T19:31:21.742Z,10.10
2019-01-05T19:34:09.656Z,9.73
2019-01-05T19:37:03.638Z,9.60
2019-01-05T19:39:50.010Z,10.93
2019-01-05T19:42:40.894Z,10.57
2019-01-05T19:45:35.584Z,11.17
2019-01-05T19:48:22.071Z,11.57
2019-01-05T19:51:19.088Z,9.97
2019-01-05T19:54:05.942Z,10.60
2019-01-05T19:57:02.976Z,10.80
2019-01-05T19:59:59.045Z,11.10
2019-01-05T20:03:05.309Z,10.53
2019-01-05T20:05:52.996Z,10.33
2019-01-05T20:08:50.058Z,10.43
2019-01-05T20:11:36.989Z,9.80
2019-01-05T20:14:22.394Z,9.37
2019-01-05T20:17:16.293Z,9.10
2019-01-05T20:20:02.964Z,9.83
2019-01-05T20:22:51.330Z,9.30
2019-01-05T20:25:45.364Z,9.07
2019-01-05T20:28:33.469Z,8.70
2019-01-05T20:31:21.361Z,8.70
2019-01-05T20:34:08.573Z,8.23
2019-01-05T20:37:02.222Z,8.10
2019-01-05T20:39:48.624Z,7.43
2019-01-05T20:42:34.943Z,7.73
2019-01-05T20:45:38.330Z,7.97
2019-01-05T20:48:26.001Z,7.23
2019-01-05T20:51:11.863Z,7.73
2019-01-05T20:53:58.414Z,6.97
2019-01-05T20:56:45.183Z,8.13
2019-01-05T20:59:34.467Z,8.20
2019-01-05T21:02:20.982Z,7.63
2019-01-05T21:05:07.327Z,7.43
2019-01-05T21:08:03.782Z,6.40
2019-01-05T21:10:50.119Z,7.33
2019-01-05T21:13:37.431Z,8.20
2019-01-05T21:16:25.923Z,7.97
2019-01-05T21:19:13.732Z,6.80
2019-01-05T21:22:00.355Z,7.03
2019-01-05T21:24:46.691Z,7.90
2019-01-05T21:27:44.148Z,6.83
2019-01-05T21:30:41.065Z,6.70
2019-01-05T21:33:25.903Z,6.83
2019-01-05T21:36:14.917Z,7.20
2019-01-05T21:39:01.630Z,6.10
2019-01-05T21:41:52.502Z,7.20
2019-01-05T21:44:44.226Z,6.73
2019-01-05T21:47:50.154Z,6.60
2019-01-05T21:50:37.946Z,7.23
2019-01-05T21:53:23.144Z,7.43
2019-01-05T21:56:05.786Z,6.50
2019-01-05T21:58:56.549Z,6.50
2019-01-05T22:01:50.131Z,6.67
2019-01-05T22:04:36.668Z,6.33
2019-01-05T22:07:24.564Z,6.50
2019-01-05T22:10:01.189Z,6.43
2019-01-05T22:12:51.951Z,6.93
2019-01-05T22:15:40.495Z,6.60
2019-01-05T22:18:43.264Z,6.03
2019-01-05T22:21:34.598Z,6.00
2019-01-05T22:24:21.325Z,6.97
2019-01-05T22:27:07.490Z,7.27
2019-01-05T22:29:53.695Z,6.37
2019-01-05T22:32:50.331Z,6.27
2019-01-05T22:35:38.059Z,6.67
2019-01-05T22:38:35.116Z,6.07
2019-01-05T22:41:29.199Z,5.43
2019-01-05T22:44:09.400Z,6.60
2019-01-05T22:46:57.029Z,6.57
2019-01-05T22:49:43.183Z,5.77
2019-01-05T22:52:31.182Z,6.47
2019-01-05T22:55:17.427Z,6.00
2019-01-05T22:58:17.614Z,6.43
2019-01-05T23:01:04.331Z,6.63
2019-01-05T23:03:58.696Z,6.80
2019-01-05T23:06:52.432Z,6.20
2019-01-05T23:09:43.163Z,6.40
2019-01-05T23:12:40.227Z,6.33
2019-01-05T23:15:25.864Z,6.93
2019-01-05T23:18:16.723Z,5.47
2019-01-05T23:21:03.275Z,6.90
2019-01-05T23:23:50.967Z,6.50
2019-01-05T23:26:43.049Z,6.53
2019-01-05T23:29:31.221Z,5.77
2019-01-05T23:32:31.094Z,6.87
2019-01-05T23:35:17.719Z,5.67
2019-01-05T23:38:11.113Z,6.93
2019-01-05T23:40:57.757Z,5.37
2019-01-05T23:43:54.725Z,5.77
2019-01-05T23:46:42.511Z,5.37
2019-01-05T23:49:30.314Z,5.37
2019-01-05T23:52:16.936Z,5.33
2019-01-05T23:55:19.697Z,6.47
2019-01-05T23:58:06.488Z,5.83
